createdAt,value
2019-04-28T00:00:31.490Z,11.90
2019-04-28T00:03:00.775Z,11.90
2019-04-28T00:05:30.931Z,11.90
2019-04-28T00:08:01.182Z,11.90
2019-04-28T00:10:31.846Z,11.80
2019-04-28T00:13:01.035Z,11.80
2019-04-28T00:15:30.871Z,11.80
2019-04-28T00:18:01.602Z,11.80
2019-04-28T00:20:31.853Z,11.80
2019-04-28T00:23:18.578Z,11.80
2019-04-28T00:26:05.078Z,11.90
2019-04-28T00:28:33.876Z,11.90
2019-04-28T00:31:02.628Z,11.90
2019-04-28T00:33:31.502Z,11.80
2019-04-28T00:36:01.578Z,11.90
2019-04-28T00:38:31.668Z,11.90
2019-04-28T00:41:02.267Z,11.90
2019-04-28T00:43:31.803Z,11.90
2019-04-28T00:46:01.213Z,11.90
2019-04-28T00:48:30.922Z,11.80
2019-04-28T00:51:01.686Z,11.80
2019-04-28T00:53:31.086Z,11.80
2019-04-28T00:56:01.764Z,11.70
2019-04-28T00:58:31.915Z,11.70
2019-04-28T01:01:05.370Z,11.60
2019-04-28T01:03:34.208Z,11.60
2019-04-28T01:06:03.031Z,11.70
2019-04-28T01:08:31.820Z,11.70
2019-04-28T01:11:01.790Z,11.60
2019-04-28T01:13:31.951Z,11.60
2019-04-28T01:16:02.481Z,11.50
2019-04-28T01:18:32.886Z,11.60
2019-04-28T01:21:01.638Z,11.60
2019-04-28T01:23:30.410Z,11.60
2019-04-28T01:26:00.076Z,11.70
2019-04-28T01:28:29.756Z,11.70
2019-04-28T01:31:00.245Z,11.70
2019-04-28T01:33:40.664Z,11.80
2019-04-28T01:36:10.383Z,11.70
2019-04-28T01:38:40.165Z,11.70
2019-04-28T01:41:09.856Z,11.70
2019-04-28T01:43:38.778Z,11.50
2019-04-28T01:46:07.530Z,11.50
2019-04-28T01:48:36.268Z,11.40
2019-04-28T01:51:05.124Z,11.30
2019-04-28T01:53:33.920Z,11.40
2019-04-28T01:56:02.757Z,11.50
2019-04-28T01:58:31.587Z,11.50
2019-04-28T02:01:00.312Z,11.40
2019-04-28T02:03:30.805Z,11.60
2019-04-28T02:06:00.203Z,11.60
2019-04-28T02:08:30.239Z,11.40
2019-04-28T02:11:00.134Z,11.40
2019-04-28T02:13:29.863Z,11.20
2019-04-28T02:16:00.036Z,11.20
2019-04-28T02:18:29.903Z,11.30
2019-04-28T02:21:00.565Z,11.10
2019-04-28T02:23:31.240Z,11.10
2019-04-28T02:26:00.039Z,11.00
2019-04-28T02:28:29.623Z,11.00
2019-04-28T02:30:58.487Z,11.40
2019-04-28T02:33:27.293Z,11.20
2019-04-28T02:35:56.127Z,11.10
2019-04-28T02:38:24.900Z,11.00
2019-04-28T02:40:53.913Z,10.70
2019-04-28T02:43:22.688Z,10.50
2019-04-28T02:45:53.463Z,10.40
2019-04-28T02:48:23.683Z,10.40
2019-04-28T02:51:02.791Z,10.40
2019-04-28T02:53:33.707Z,10.40
2019-04-28T02:56:02.756Z,10.50
2019-04-28T02:58:31.587Z,10.40
2019-04-28T03:01:06.710Z,10.40
2019-04-28T03:03:30.984Z,10.40
2019-04-28T03:06:01.460Z,10.50
2019-04-28T03:08:30.823Z,10.40
2019-04-28T03:11:00.946Z,10.30
2019-04-28T03:13:31.109Z,10.30
2019-04-28T03:16:01.481Z,10.30
2019-04-28T03:18:31.770Z,10.40
2019-04-28T03:21:01.725Z,10.30
2019-04-28T03:23:31.729Z,10.30
2019-04-28T03:26:21.250Z,10.50
2019-04-28T03:29:03.499Z,10.50
2019-04-28T03:32:01.237Z,10.50
2019-04-28T03:34:05.020Z,10.40
2019-04-28T03:36:33.958Z,10.30
2019-04-28T03:39:02.709Z,10.30
2019-04-28T03:41:31.496Z,10.30
2019-04-28T03:44:00.566Z,10.20
2019-04-28T03:46:34.187Z,10.20
2019-04-28T03:49:03.041Z,10.10
2019-04-28T03:51:31.801Z,10.10
2019-04-28T03:54:02.998Z,10.00
2019-04-28T03:56:31.159Z,10.00
2019-04-28T03:59:00.532Z,9.90
2019-04-28T04:01:30.488Z,9.90
2019-04-28T04:04:01.189Z,9.80
2019-04-28T04:06:31.090Z,9.80
2019-04-28T04:09:00.398Z,9.80
2019-04-28T04:11:31.293Z,9.70
2019-04-28T04:14:01.962Z,9.80
2019-04-28T04:16:40.530Z,9.80
2019-04-28T04:19:10.745Z,9.70
2019-04-28T04:21:40.717Z,9.70
2019-04-28T04:24:10.824Z,9.60
2019-04-28T04:26:40.924Z,9.60
2019-04-28T04:29:10.392Z,9.60
2019-04-28T04:31:41.312Z,9.70
2019-04-28T04:34:10.646Z,9.70
2019-04-28T04:36:41.672Z,9.60
2019-04-28T04:39:10.779Z,9.60
2019-04-28T04:41:43.022Z,9.50
2019-04-28T04:44:11.186Z,9.50
2019-04-28T04:46:41.496Z,9.50
2019-04-28T04:49:10.803Z,9.50
2019-04-28T04:51:40.771Z,9.60
2019-04-28T04:54:10.851Z,9.50
2019-04-28T04:56:40.231Z,9.50
2019-04-28T04:59:10.220Z,9.60
2019-04-28T05:01:40.994Z,9.60
2019-04-28T05:04:23.490Z,9.70
2019-04-28T05:06:52.258Z,9.60
2019-04-28T05:09:21.090Z,9.60
2019-04-28T05:11:50.084Z,9.60
2019-04-28T05:14:19.920Z,9.60
2019-04-28T05:16:49.764Z,9.60
2019-04-28T05:19:19.907Z,9.60
2019-04-28T05:21:49.889Z,9.60
2019-04-28T05:24:20.693Z,9.70
2019-04-28T05:26:51.552Z,9.70
2019-04-28T05:29:26.625Z,9.70
2019-04-28T05:31:54.805Z,9.60
2019-04-28T05:34:24.067Z,9.60
2019-04-28T05:36:52.382Z,9.60
2019-04-28T05:39:21.109Z,9.60
2019-04-28T05:41:50.469Z,9.60
2019-04-28T05:44:20.359Z,9.60
2019-04-28T05:46:50.604Z,9.60
2019-04-28T05:49:23.957Z,9.60
2019-04-28T05:52:11.653Z,9.60
2019-04-28T05:54:41.289Z,9.60
2019-04-28T05:57:14.447Z,9.50
2019-04-28T05:59:44.874Z,9.50
2019-04-28T06:02:27.211Z,9.40
2019-04-28T06:04:56.041Z,9.40
2019-04-28T06:07:32.457Z,9.40
2019-04-28T06:10:01.229Z,9.40
2019-04-28T06:12:31.836Z,9.40
2019-04-28T06:15:00.479Z,9.50
2019-04-28T06:17:29.534Z,9.40
2019-04-28T06:20:00.071Z,9.40
2019-04-28T06:22:29.049Z,9.40
2019-04-28T06:24:57.841Z,9.50
2019-04-28T06:27:26.643Z,9.50
2019-04-28T06:29:55.439Z,9.60
2019-04-28T06:32:24.283Z,9.60
2019-04-28T06:34:53.066Z,9.50
2019-04-28T06:37:21.868Z,9.40
2019-04-28T06:39:50.668Z,9.50
2019-04-28T06:42:19.471Z,9.50
2019-04-28T06:44:48.334Z,9.60
2019-04-28T06:47:17.181Z,9.70
2019-04-28T06:49:45.957Z,9.70
2019-04-28T06:52:14.737Z,9.60
2019-04-28T06:54:43.565Z,9.60
2019-04-28T06:57:12.376Z,9.70
2019-04-28T06:59:41.173Z,9.70
2019-04-28T07:02:10.035Z,9.70
2019-04-28T07:04:38.864Z,9.80
2019-04-28T07:07:07.637Z,9.90
2019-04-28T07:09:36.394Z,10.00
2019-04-28T07:12:05.138Z,10.10
2019-04-28T07:14:33.898Z,10.10
2019-04-28T07:17:02.661Z,10.10
2019-04-28T07:19:33.461Z,10.00
2019-04-28T07:22:03.576Z,10.00
2019-04-28T07:24:32.349Z,10.10
2019-04-28T07:27:01.120Z,10.10
2019-04-28T07:29:29.912Z,10.30
2019-04-28T07:31:59.154Z,10.20
2019-04-28T07:34:27.904Z,10.30
2019-04-28T07:36:56.671Z,10.30
2019-04-28T07:39:25.477Z,10.20
2019-04-28T07:41:54.327Z,10.00
2019-04-28T07:44:23.226Z,9.80
2019-04-28T07:46:52.301Z,9.80
2019-04-28T07:49:21.150Z,9.80
2019-04-28T07:52:03.370Z,9.80
2019-04-28T07:54:32.458Z,9.90
2019-04-28T07:57:01.264Z,9.90
2019-04-28T07:59:30.166Z,9.90
2019-04-28T08:01:59.171Z,10.00
2019-04-28T08:04:27.961Z,9.90
2019-04-28T08:06:56.783Z,9.90
2019-04-28T08:09:25.554Z,9.80
2019-04-28T08:11:54.349Z,9.60
2019-04-28T08:14:23.095Z,9.70
2019-04-28T08:16:52.166Z,9.80
2019-04-28T08:19:20.957Z,9.80
2019-04-28T08:21:49.895Z,9.90
2019-04-28T08:24:18.760Z,10.10
2019-04-28T08:26:47.673Z,10.20
2019-04-28T08:29:16.745Z,10.20
2019-04-28T08:31:47.196Z,10.40
2019-04-28T08:34:17.568Z,10.40
2019-04-28T08:36:46.366Z,10.30
2019-04-28T08:39:15.173Z,10.30
2019-04-28T08:41:43.908Z,10.30
2019-04-28T08:44:12.690Z,10.40
2019-04-28T08:46:41.757Z,10.50
2019-04-28T08:49:10.901Z,10.50
2019-04-28T08:51:39.716Z,10.60
2019-04-28T08:54:08.483Z,10.70
2019-04-28T08:56:37.336Z,10.70
2019-04-28T08:59:06.120Z,10.70
2019-04-28T09:01:34.958Z,10.80
2019-04-28T09:04:14.874Z,11.00
2019-04-28T09:06:34.308Z,10.90
2019-04-28T09:09:04.693Z,11.10
2019-04-28T09:11:33.495Z,11.30
2019-04-28T09:14:02.324Z,11.40
2019-04-28T09:16:31.162Z,11.20
2019-04-28T09:19:00.004Z,11.10
2019-04-28T09:21:28.829Z,11.30
2019-04-28T09:23:57.570Z,11.50
2019-04-28T09:26:26.540Z,11.50
2019-04-28T09:28:55.383Z,11.50
2019-04-28T09:31:24.253Z,11.50
2019-04-28T09:33:53.094Z,11.50
2019-04-28T09:36:21.945Z,11.60
2019-04-28T09:38:51.106Z,11.90
2019-04-28T09:41:19.961Z,12.30
2019-04-28T09:43:53.117Z,12.40
2019-04-28T09:46:23.572Z,13.20
2019-04-28T09:48:52.379Z,13.80
2019-04-28T09:51:21.410Z,13.90
2019-04-28T09:53:50.164Z,13.80
2019-04-28T09:56:18.931Z,13.60
2019-04-28T09:58:47.754Z,13.60
2019-04-28T10:01:16.528Z,13.30
2019-04-28T10:03:45.282Z,13.10
2019-04-28T10:06:14.046Z,12.70
2019-04-28T10:08:42.794Z,12.60
2019-04-28T10:11:11.520Z,12.50
2019-04-28T10:13:40.304Z,12.60
2019-04-28T10:16:09.042Z,13.00
2019-04-28T10:18:37.897Z,13.10
2019-04-28T10:21:06.736Z,13.20
2019-04-28T10:23:35.556Z,13.40
2019-04-28T10:26:04.425Z,13.60
2019-04-28T10:28:33.171Z,13.40
2019-04-28T10:31:02.221Z,13.20
2019-04-28T10:33:31.005Z,13.00
2019-04-28T10:35:59.733Z,12.90
2019-04-28T10:38:28.481Z,12.80
2019-04-28T10:41:01.638Z,12.80
2019-04-28T10:43:30.483Z,13.10
2019-04-28T10:45:59.277Z,13.30
2019-04-28T10:48:28.150Z,13.60
2019-04-28T10:50:56.997Z,14.00
2019-04-28T10:53:25.465Z,14.30
2019-04-28T10:55:53.954Z,14.90
2019-04-28T10:58:22.483Z,14.60
2019-04-28T11:00:50.979Z,14.90
2019-04-28T11:03:19.473Z,15.40
2019-04-28T11:05:47.960Z,15.60
2019-04-28T11:08:27.101Z,15.90
2019-04-28T11:10:55.688Z,16.30
2019-04-28T11:13:24.198Z,15.90
2019-04-28T11:15:52.962Z,15.40
2019-04-28T11:18:21.592Z,15.80
2019-04-28T11:20:50.130Z,15.80
2019-04-28T11:23:18.718Z,15.90
2019-04-28T11:25:47.343Z,15.30
2019-04-28T11:28:15.876Z,15.00
2019-04-28T11:30:44.460Z,14.90
2019-04-28T11:33:14.738Z,15.50
2019-04-28T11:35:44.615Z,16.20
2019-04-28T11:38:13.310Z,16.10
2019-04-28T11:40:41.866Z,15.80
2019-04-28T11:43:10.467Z,15.30
2019-04-28T11:45:39.010Z,15.50
2019-04-28T11:48:07.521Z,15.20
2019-04-28T11:50:36.186Z,14.50
2019-04-28T11:53:06.724Z,14.20
2019-04-28T11:55:35.464Z,13.90
2019-04-28T11:58:04.567Z,13.70
2019-04-28T12:00:34.773Z,13.60
2019-04-28T12:03:03.687Z,13.70
2019-04-28T12:05:38.470Z,13.80
2019-04-28T12:08:07.247Z,13.70
2019-04-28T12:10:47.276Z,13.90
2019-04-28T12:13:17.873Z,14.20
2019-04-28T12:15:51.221Z,14.10
2019-04-28T12:18:37.677Z,14.20
2019-04-28T12:21:06.412Z,14.10
2019-04-28T12:23:35.181Z,13.90
2019-04-28T12:26:04.044Z,13.60
2019-04-28T12:28:32.839Z,13.60
2019-04-28T12:31:01.625Z,13.60
2019-04-28T12:33:30.424Z,13.60
2019-04-28T12:35:59.243Z,13.50
2019-04-28T12:38:28.002Z,13.40
2019-04-28T12:40:56.816Z,13.70
2019-04-28T12:43:25.905Z,13.80
2019-04-28T12:45:54.768Z,13.90
2019-04-28T12:48:23.833Z,14.00
2019-04-28T12:50:53.598Z,14.20
2019-04-28T12:53:23.225Z,14.10
2019-04-28T12:55:52.076Z,13.70
2019-04-28T12:58:20.886Z,13.50
2019-04-28T13:01:07.208Z,13.50
2019-04-28T13:03:43.380Z,13.60
2019-04-28T13:06:16.784Z,13.80
2019-04-28T13:08:45.609Z,13.70
2019-04-28T13:11:14.358Z,13.90
2019-04-28T13:13:43.206Z,13.90
2019-04-28T13:16:12.058Z,13.90
2019-04-28T13:18:41.054Z,14.10
2019-04-28T13:21:09.879Z,14.30
2019-04-28T13:23:38.658Z,14.70
2019-04-28T13:26:07.234Z,15.30
2019-04-28T13:28:35.816Z,15.60
2019-04-28T13:31:04.435Z,16.00
2019-04-28T13:33:33.102Z,16.70
2019-04-28T13:36:13.797Z,16.40
2019-04-28T13:38:31.894Z,16.60
2019-04-28T13:41:00.473Z,16.00
2019-04-28T13:43:29.017Z,15.80
2019-04-28T13:45:57.642Z,15.50
2019-04-28T13:48:26.150Z,15.30
2019-04-28T13:50:54.653Z,15.20
2019-04-28T13:53:23.227Z,14.90
2019-04-28T13:55:53.436Z,15.00
2019-04-28T13:58:23.650Z,15.10
2019-04-28T14:01:09.951Z,15.00
2019-04-28T14:03:49.211Z,15.20
2019-04-28T14:06:28.901Z,15.60
2019-04-28T14:08:57.663Z,15.90
2019-04-28T14:11:26.204Z,16.30
2019-04-28T14:13:54.752Z,16.70
2019-04-28T14:16:23.317Z,16.90
2019-04-28T14:18:51.785Z,16.40
2019-04-28T14:21:20.277Z,16.00
2019-04-28T14:23:49.271Z,15.60
2019-04-28T14:26:17.826Z,15.40
2019-04-28T14:28:46.350Z,15.20
2019-04-28T14:31:14.831Z,15.10
2019-04-28T14:33:43.615Z,14.90
2019-04-28T14:36:12.588Z,14.60
2019-04-28T14:38:43.048Z,14.60
2019-04-28T14:41:11.873Z,14.50
2019-04-28T14:43:40.749Z,14.60
2019-04-28T14:46:09.309Z,14.90
2019-04-28T14:48:37.796Z,15.10
2019-04-28T14:51:06.308Z,15.60
2019-04-28T14:53:34.922Z,15.70
2019-04-28T14:56:03.500Z,15.70
2019-04-28T14:58:32.007Z,15.50
2019-04-28T15:01:16.949Z,15.20
2019-04-28T15:03:53.095Z,15.10
2019-04-28T15:06:25.695Z,15.10
2019-04-28T15:08:55.961Z,15.20
2019-04-28T15:11:31.888Z,15.10
2019-04-28T15:14:00.437Z,15.10
2019-04-28T15:16:29.105Z,15.40
2019-04-28T15:18:57.686Z,15.50
2019-04-28T15:21:26.196Z,15.70
2019-04-28T15:23:54.685Z,15.60
2019-04-28T15:26:23.410Z,15.60
2019-04-28T15:28:52.125Z,15.50
2019-04-28T15:31:20.621Z,15.60
2019-04-28T15:33:49.131Z,15.60
2019-04-28T15:36:17.706Z,15.60
2019-04-28T15:38:46.271Z,15.60
2019-04-28T15:41:21.561Z,15.60
2019-04-28T15:43:45.280Z,15.50
2019-04-28T15:46:13.821Z,15.40
2019-04-28T15:48:42.286Z,15.40
2019-04-28T15:51:10.771Z,15.40
2019-04-28T15:53:39.320Z,15.40
2019-04-28T15:56:09.465Z,15.30
2019-04-28T15:58:39.656Z,15.20
2019-04-28T16:01:08.430Z,15.20
2019-04-28T16:03:36.927Z,15.30
2019-04-28T16:06:05.533Z,15.30
2019-04-28T16:08:34.120Z,15.20
2019-04-28T16:11:02.613Z,15.20
2019-04-28T16:13:31.249Z,15.00
2019-04-28T16:15:59.848Z,15.00
2019-04-28T16:18:28.334Z,15.00
2019-04-28T16:20:57.140Z,14.90
2019-04-28T16:23:25.918Z,15.00
2019-04-28T16:25:54.709Z,14.90
2019-04-28T16:28:23.199Z,14.80
2019-04-28T16:30:51.959Z,14.80
2019-04-28T16:33:20.768Z,14.70
2019-04-28T16:35:49.533Z,14.70
2019-04-28T16:38:18.288Z,14.70
2019-04-28T16:40:47.205Z,14.80
2019-04-28T16:43:19.200Z,14.80
2019-04-28T16:45:47.686Z,14.90
2019-04-28T16:48:16.506Z,14.90
2019-04-28T16:50:45.249Z,14.80
2019-04-28T16:53:14.033Z,14.70
2019-04-28T16:55:47.404Z,14.70
2019-04-28T16:58:23.563Z,14.70
2019-04-28T17:00:59.979Z,14.70
2019-04-28T17:03:38.665Z,14.70
2019-04-28T17:06:07.473Z,14.50
2019-04-28T17:08:36.246Z,14.40
2019-04-28T17:11:05.054Z,14.40
2019-04-28T17:13:33.818Z,14.40
2019-04-28T17:16:02.665Z,14.30
2019-04-28T17:18:31.429Z,14.40
2019-04-28T17:21:00.646Z,14.50
2019-04-28T17:23:29.568Z,14.30
2019-04-28T17:25:58.317Z,14.30
2019-04-28T17:28:27.699Z,14.10
2019-04-28T17:30:56.516Z,14.10
2019-04-28T17:33:25.979Z,14.00
2019-04-28T17:35:54.739Z,13.90
2019-04-28T17:38:23.609Z,13.90
2019-04-28T17:40:52.344Z,13.90
2019-04-28T17:43:21.109Z,13.80
2019-04-28T17:45:49.911Z,13.70
2019-04-28T17:48:20.346Z,13.60
2019-04-28T17:50:49.117Z,13.50
2019-04-28T17:53:17.859Z,13.50
2019-04-28T17:55:46.637Z,13.40
2019-04-28T17:58:15.397Z,13.40
2019-04-28T18:00:45.828Z,13.40
2019-04-28T18:03:32.536Z,13.30
2019-04-28T18:06:17.164Z,13.30
2019-04-28T18:08:36.398Z,13.30
2019-04-28T18:11:05.168Z,13.30
2019-04-28T18:13:33.947Z,13.20
2019-04-28T18:16:04.436Z,13.20
2019-04-28T18:18:37.494Z,13.10
2019-04-28T18:21:06.239Z,13.10
2019-04-28T18:23:35.000Z,13.00
2019-04-28T18:26:03.894Z,13.00
2019-04-28T18:28:32.669Z,13.00
2019-04-28T18:31:03.049Z,12.90
2019-04-28T18:33:33.501Z,12.90
2019-04-28T18:36:03.964Z,12.90
2019-04-28T18:38:46.235Z,12.80
2019-04-28T18:41:16.659Z,12.70
2019-04-28T18:44:02.265Z,12.80
2019-04-28T18:46:31.397Z,12.70
2019-04-28T18:49:00.176Z,12.60
2019-04-28T18:51:28.952Z,12.60
2019-04-28T18:53:57.688Z,12.60
2019-04-28T18:56:26.460Z,12.50
2019-04-28T18:58:55.217Z,12.60
2019-04-28T19:01:25.638Z,12.60
2019-04-28T19:03:54.653Z,12.50
2019-04-28T19:06:23.413Z,12.50
2019-04-28T19:08:53.851Z,12.50
2019-04-28T19:11:30.267Z,12.50
2019-04-28T19:14:03.672Z,12.50
2019-04-28T19:16:50.666Z,12.50
2019-04-28T19:19:21.157Z,12.50
2019-04-28T19:21:56.330Z,12.40
2019-04-28T19:24:26.280Z,12.40
2019-04-28T19:26:55.191Z,12.30
2019-04-28T19:29:24.063Z,12.30
2019-04-28T19:31:52.958Z,12.30
2019-04-28T19:34:21.718Z,12.20
2019-04-28T19:36:50.789Z,12.20
2019-04-28T19:39:19.625Z,12.20
2019-04-28T19:41:49.431Z,12.20
2019-04-28T19:44:18.279Z,12.10
2019-04-28T19:46:47.117Z,12.10
2019-04-28T19:49:15.937Z,12.10
2019-04-28T19:51:44.754Z,12.10
2019-04-28T19:54:13.992Z,12.10
2019-04-28T19:56:56.691Z,12.00
2019-04-28T19:59:27.153Z,12.00
2019-04-28T20:01:56.318Z,12.00
2019-04-28T20:04:25.173Z,12.00
2019-04-28T20:06:53.948Z,12.00
2019-04-28T20:09:22.944Z,11.90
2019-04-28T20:11:51.712Z,11.90
2019-04-28T20:14:20.496Z,11.80
2019-04-28T20:16:49.274Z,11.80
2019-04-28T20:19:18.115Z,11.80
2019-04-28T20:21:46.975Z,11.80
2019-04-28T20:24:15.746Z,11.70
2019-04-28T20:26:44.944Z,11.80
2019-04-28T20:29:13.766Z,11.70
2019-04-28T20:31:42.507Z,11.80
2019-04-28T20:34:11.247Z,11.70
2019-04-28T20:36:59.758Z,11.70
2019-04-28T20:39:30.136Z,11.80
2019-04-28T20:42:00.593Z,11.60
2019-04-28T20:44:29.378Z,11.60
2019-04-28T20:47:03.806Z,11.60
2019-04-28T20:49:32.625Z,11.60
2019-04-28T20:52:01.374Z,11.60
2019-04-28T20:54:30.137Z,11.60
2019-04-28T20:56:58.957Z,11.60
2019-04-28T20:59:27.761Z,11.60
2019-04-28T21:01:56.507Z,11.60
2019-04-28T21:04:25.273Z,11.60
2019-04-28T21:06:54.041Z,11.50
2019-04-28T21:09:22.792Z,11.50
2019-04-28T21:11:51.580Z,11.50
2019-04-28T21:14:20.861Z,11.50
2019-04-28T21:16:49.754Z,11.40
2019-04-28T21:19:18.470Z,11.50
2019-04-28T21:21:47.456Z,11.50
2019-04-28T21:24:17.013Z,11.50
2019-04-28T21:26:46.046Z,11.50
2019-04-28T21:29:14.848Z,11.50
2019-04-28T21:31:43.621Z,11.50
2019-04-28T21:34:12.408Z,11.50
2019-04-28T21:36:41.200Z,11.40
2019-04-28T21:39:10.008Z,11.40
2019-04-28T21:41:38.760Z,11.40
2019-04-28T21:44:24.202Z,11.40
2019-04-28T21:46:54.602Z,11.30
2019-04-28T21:49:30.769Z,11.30
2019-04-28T21:51:59.525Z,11.40
2019-04-28T21:54:28.247Z,11.40
2019-04-28T21:56:57.015Z,11.40
2019-04-28T21:59:25.869Z,11.50
2019-04-28T22:01:54.881Z,11.40
2019-04-28T22:04:23.612Z,11.40
2019-04-28T22:06:52.369Z,11.30
2019-04-28T22:09:21.214Z,11.30
2019-04-28T22:11:50.517Z,11.30
2019-04-28T22:14:19.541Z,11.30
2019-04-28T22:16:48.334Z,11.30
2019-04-28T22:19:17.103Z,11.30
2019-04-28T22:21:45.904Z,11.20
2019-04-28T22:24:16.305Z,11.20
2019-04-28T22:26:46.631Z,11.20
2019-04-28T22:29:15.446Z,11.10
2019-04-28T22:31:44.972Z,11.00
2019-04-28T22:34:14.574Z,11.00
2019-04-28T22:36:45.150Z,11.10
2019-04-28T22:39:14.456Z,11.00
2019-04-28T22:41:43.246Z,11.00
2019-04-28T22:44:12.045Z,11.00
2019-04-28T22:46:40.787Z,10.90
2019-04-28T22:49:09.538Z,10.90
2019-04-28T22:51:38.371Z,11.00
2019-04-28T22:54:08.810Z,11.00
2019-04-28T22:56:39.213Z,11.00
2019-04-28T22:59:09.645Z,11.00
2019-04-28T23:01:40.046Z,11.00
2019-04-28T23:04:27.093Z,11.00
2019-04-28T23:06:55.845Z,11.00
2019-04-28T23:09:24.619Z,11.00
2019-04-28T23:11:53.392Z,11.00
2019-04-28T23:14:22.120Z,11.00
2019-04-28T23:16:50.899Z,10.90
2019-04-28T23:19:21.294Z,10.80
2019-04-28T23:21:57.441Z,10.80
2019-04-28T23:24:26.217Z,10.80
2019-04-28T23:26:55.045Z,10.80
2019-04-28T23:29:23.780Z,10.70
2019-04-28T23:31:52.561Z,10.60
2019-04-28T23:34:21.442Z,10.70
2019-04-28T23:36:50.244Z,10.70
2019-04-28T23:39:18.982Z,10.70
2019-04-28T23:42:01.237Z,10.70
2019-04-28T23:44:30.286Z,10.70
2019-04-28T23:47:00.020Z,10.60
2019-04-28T23:49:30.163Z,10.70
2019-04-28T23:52:12.829Z,10.70
2019-04-28T23:54:43.209Z,10.70
2019-04-28T23:57:12.004Z,10.70
2019-04-28T23:59:40.857Z,10.60
